Terminal Aerodrome Forecast
Issued by NWS Amarillo, TX

Home | Current Version | Previous Version | Text Only | Print | Product List | Glossary On
Versions: 1 2 3 4 5 6 7 8 9 10 11 12 13 14 15
000
FTUS44 KAMA 040500
TAFDHT
TAF
KDHT 040523Z 0406/0506 17010KT P6SM SCT090 BKN200
     FM041200 20012KT P6SM FEW070 SCT200
     FM041900 20016G22KT P6SM SCT090 BKN200=

USA.gov is the U.S. government's official web portal to all federal, state and local government web resources and services.